createdAt,value
2018-11-30T16:41:16.458Z,1.38
2018-11-30T16:42:17.841Z,1.42
2018-11-30T16:43:19.217Z,1.42
2018-11-30T16:44:20.601Z,1.44
2018-11-30T16:45:21.986Z,1.39
2018-11-30T16:46:23.365Z,1.38
2018-11-30T16:47:24.742Z,1.35
2018-11-30T16:48:26.122Z,1.42
2018-11-30T16:49:27.486Z,1.38
2018-11-30T16:50:28.873Z,1.42
2018-11-30T16:51:30.251Z,1.31
2018-11-30T16:52:31.627Z,1.47
2018-11-30T16:53:33.024Z,1.39
2018-11-30T16:54:34.397Z,1.44
2018-11-30T16:55:35.797Z,1.42
2018-11-30T16:56:37.161Z,1.42
2018-11-30T16:57:38.546Z,1.44
2018-11-30T16:58:39.940Z,1.42
2018-11-30T16:59:41.316Z,1.43
2018-11-30T17:00:42.696Z,1.50
2018-11-30T17:01:44.097Z,1.42
2018-11-30T17:02:45.536Z,1.52
2018-11-30T17:03:46.829Z,1.43
2018-11-30T17:04:48.213Z,1.39
2018-11-30T17:05:49.597Z,1.52
2018-11-30T17:06:58.736Z,1.49
2018-11-30T17:08:00.098Z,1.47
2018-11-30T17:09:01.472Z,1.52
2018-11-30T17:10:03.287Z,1.50
2018-11-30T17:11:05.491Z,1.53
2018-11-30T17:12:06.255Z,1.57
2018-11-30T17:13:07.579Z,1.56
2018-11-30T17:14:08.952Z,1.56
2018-11-30T17:15:10.686Z,1.54
2018-11-30T17:16:12.068Z,1.50
2018-11-30T17:17:13.461Z,1.49
2018-11-30T17:18:15.034Z,1.49
2018-11-30T17:19:16.417Z,1.57
2018-11-30T17:20:17.803Z,1.44
2018-11-30T17:21:19.439Z,1.57
2018-11-30T17:22:20.826Z,1.52
2018-11-30T17:23:22.693Z,1.53
2018-11-30T17:24:28.475Z,1.54
2018-11-30T17:25:25.376Z,1.47
2018-11-30T17:26:27.188Z,1.50
2018-11-30T17:27:28.578Z,1.57
2018-11-30T17:28:29.958Z,1.52
2018-11-30T17:29:31.367Z,1.54
2018-11-30T17:30:32.754Z,1.53
2018-11-30T17:31:34.241Z,1.44
2018-11-30T17:32:35.671Z,1.47
2018-11-30T17:33:37.042Z,1.39
2018-11-30T17:34:38.743Z,1.38
2018-11-30T17:35:40.125Z,1.49
2018-11-30T17:36:41.502Z,1.49
2018-11-30T17:37:43.083Z,1.46
2018-11-30T17:38:44.467Z,1.52
2018-11-30T17:39:45.846Z,1.50
2018-11-30T17:40:47.517Z,1.53
2018-11-30T17:41:48.887Z,1.49
2018-11-30T17:42:50.395Z,1.53
2018-11-30T17:43:51.718Z,1.52
2018-11-30T17:44:53.118Z,1.49
2018-11-30T17:45:54.719Z,1.52
2018-11-30T17:46:56.107Z,1.52
2018-11-30T17:47:57.685Z,1.50
2018-11-30T17:48:59.068Z,1.52
2018-11-30T17:50:00.467Z,1.50
2018-11-30T17:51:02.441Z,1.54
2018-11-30T17:52:03.827Z,1.50
2018-11-30T17:53:05.210Z,1.52
2018-11-30T17:54:06.599Z,1.57
2018-11-30T17:55:07.973Z,1.61
2018-11-30T17:56:17.473Z,1.49
2018-11-30T17:57:19.172Z,1.50
2018-11-30T17:58:20.722Z,1.49
2018-11-30T17:59:22.097Z,1.52
2018-11-30T18:00:23.709Z,1.49
2018-11-30T18:01:25.085Z,1.53
2018-11-30T18:02:26.474Z,1.65
2018-11-30T18:03:28.087Z,1.60
2018-11-30T18:04:29.483Z,1.61
2018-11-30T18:05:31.432Z,1.64
2018-11-30T18:06:32.805Z,1.61
2018-11-30T18:07:34.180Z,1.65
2018-11-30T18:08:35.723Z,1.67
2018-11-30T18:09:37.137Z,1.63
2018-11-30T18:10:38.515Z,1.64
2018-11-30T18:11:39.909Z,1.65
2018-11-30T18:12:41.272Z,1.56
2018-11-30T18:13:42.656Z,1.60
2018-11-30T18:14:44.033Z,1.56
2018-11-30T18:15:45.402Z,1.60
2018-11-30T18:16:46.792Z,1.61
2018-11-30T18:17:48.169Z,1.61
2018-11-30T18:18:49.550Z,1.64
2018-11-30T18:19:50.934Z,1.57
2018-11-30T18:20:52.313Z,1.64
2018-11-30T18:21:53.687Z,1.57
2018-11-30T18:22:55.072Z,1.60
2018-11-30T18:23:56.449Z,1.56
2018-11-30T18:24:57.831Z,1.61
2018-11-30T18:25:59.228Z,1.57
2018-11-30T18:27:00.597Z,1.52
2018-11-30T18:28:01.967Z,1.60
2018-11-30T18:29:03.347Z,1.52
2018-11-30T18:30:04.725Z,1.60
2018-11-30T18:31:06.102Z,1.52
2018-11-30T18:32:07.490Z,1.52
2018-11-30T18:33:08.870Z,1.52
2018-11-30T18:34:10.249Z,1.50
2018-11-30T18:35:11.651Z,1.50
2018-11-30T18:36:13.033Z,1.50
2018-11-30T18:37:14.417Z,1.53
2018-11-30T18:38:15.792Z,1.52
2018-11-30T18:39:17.180Z,1.56
2018-11-30T18:40:18.574Z,1.53
2018-11-30T18:41:19.955Z,1.53
2018-11-30T18:42:21.342Z,1.60
2018-11-30T18:43:22.698Z,1.52
2018-11-30T18:44:24.102Z,1.60
2018-11-30T18:45:26.139Z,1.60
2018-11-30T18:46:27.523Z,1.57
2018-11-30T18:47:29.228Z,1.57
2018-11-30T18:48:30.602Z,1.52
2018-11-30T18:49:31.988Z,1.54
2018-11-30T18:50:33.816Z,1.46
2018-11-30T18:51:35.193Z,1.52
2018-11-30T18:52:36.692Z,1.52
2018-11-30T18:53:38.029Z,1.54
2018-11-30T18:54:39.405Z,1.49
2018-11-30T18:55:41.320Z,1.53
2018-11-30T18:56:42.712Z,1.50
2018-11-30T18:57:44.233Z,1.52
2018-11-30T18:58:45.889Z,1.53
2018-11-30T18:59:47.265Z,1.56
2018-11-30T19:00:48.923Z,1.52
2018-11-30T19:01:50.304Z,1.49
2018-11-30T19:02:51.676Z,1.54
2018-11-30T19:03:53.219Z,1.39
2018-11-30T19:04:54.598Z,1.57
2018-11-30T19:05:56.109Z,1.46
2018-11-30T19:06:57.444Z,1.42
2018-11-30T19:07:58.832Z,1.43
2018-11-30T19:09:00.549Z,1.43
2018-11-30T19:10:01.883Z,1.46
2018-11-30T19:11:03.272Z,1.42
2018-11-30T19:12:05.236Z,1.42
2018-11-30T19:13:07.347Z,1.38
2018-11-30T19:14:09.097Z,1.46
2018-11-30T19:15:10.477Z,1.53
2018-11-30T19:16:11.868Z,1.43
2018-11-30T19:17:13.847Z,1.44
2018-11-30T19:18:15.216Z,1.47
2018-11-30T19:19:16.893Z,1.44
2018-11-30T19:20:18.267Z,1.38
2018-11-30T19:21:19.645Z,1.38
2018-11-30T19:22:21.021Z,1.47
2018-11-30T19:23:22.402Z,1.42
2018-11-30T19:24:23.783Z,1.42
2018-11-30T19:25:25.159Z,1.44
2018-11-30T19:26:26.545Z,1.43
2018-11-30T19:27:27.929Z,1.47
2018-11-30T19:28:29.510Z,1.44
2018-11-30T19:29:30.884Z,1.43
2018-11-30T19:30:32.271Z,1.50
2018-11-30T19:31:34.092Z,1.43
2018-11-30T19:32:35.480Z,1.47
2018-11-30T19:33:37.117Z,1.46
2018-11-30T19:34:38.809Z,1.42
2018-11-30T19:35:40.188Z,1.39
2018-11-30T19:36:41.564Z,1.43
2018-11-30T19:37:42.958Z,1.46
2018-11-30T19:38:44.332Z,1.44
2018-11-30T19:39:45.718Z,1.44
2018-11-30T19:40:47.338Z,1.39
2018-11-30T19:41:48.718Z,1.57
2018-11-30T19:42:50.095Z,1.49
2018-11-30T19:43:51.494Z,1.43
2018-11-30T19:44:52.870Z,1.47
2018-11-30T19:45:54.293Z,1.47
2018-11-30T19:46:55.688Z,1.52
2018-11-30T19:47:57.105Z,1.50
2018-11-30T19:48:58.743Z,1.44
2018-11-30T19:50:00.113Z,1.39
2018-11-30T19:51:01.499Z,1.42
2018-11-30T19:52:03.036Z,1.42
2018-11-30T19:53:04.417Z,1.38
2018-11-30T19:54:05.805Z,1.42
2018-11-30T19:55:07.661Z,1.42
2018-11-30T19:56:11.859Z,1.43
2018-11-30T19:57:13.616Z,1.44
2018-11-30T19:58:14.984Z,1.52
2018-11-30T19:59:16.364Z,1.38
2018-11-30T20:00:18.078Z,1.46
2018-11-30T20:01:19.452Z,1.43
2018-11-30T20:02:20.839Z,1.44
2018-11-30T20:03:23.304Z,1.44
2018-11-30T20:04:24.675Z,1.50
2018-11-30T20:05:26.195Z,1.44
2018-11-30T20:06:27.560Z,1.44
2018-11-30T20:07:29.114Z,1.39
2018-11-30T20:08:30.606Z,1.42
2018-11-30T20:09:31.987Z,1.42
2018-11-30T20:10:33.672Z,1.43
2018-11-30T20:11:35.049Z,1.46
2018-11-30T20:12:36.427Z,1.53
2018-11-30T20:13:38.119Z,1.42
2018-11-30T20:14:39.508Z,1.49
2018-11-30T20:15:40.888Z,1.49
2018-11-30T20:16:42.778Z,1.54
2018-11-30T20:17:44.174Z,1.44
2018-11-30T20:18:45.826Z,1.42
2018-11-30T20:19:47.204Z,1.44
2018-11-30T20:20:48.586Z,1.44
2018-11-30T20:21:50.151Z,1.46
2018-11-30T20:22:51.532Z,1.46
2018-11-30T20:23:52.921Z,1.38
2018-11-30T20:24:54.988Z,1.42
2018-11-30T20:25:56.790Z,1.46
2018-11-30T20:26:58.166Z,1.46
2018-11-30T20:27:59.547Z,1.47
2018-11-30T20:29:00.936Z,1.43
2018-11-30T20:30:05.069Z,1.43
2018-11-30T20:31:06.410Z,1.36
2018-11-30T20:32:07.791Z,1.44
2018-11-30T20:33:09.174Z,1.43
2018-11-30T20:34:10.549Z,1.49
2018-11-30T20:35:11.938Z,1.39
2018-11-30T20:36:13.352Z,1.47
2018-11-30T20:37:14.723Z,1.49
2018-11-30T20:38:16.106Z,1.42
2018-11-30T20:39:17.484Z,1.44
2018-11-30T20:40:18.881Z,1.47
2018-11-30T20:41:20.263Z,1.46
2018-11-30T20:42:21.656Z,1.39
2018-11-30T20:43:23.038Z,1.49
2018-11-30T20:44:24.421Z,1.43
2018-11-30T20:45:25.792Z,1.31
2018-11-30T20:46:27.173Z,1.43
2018-11-30T20:47:28.564Z,1.29
2018-11-30T20:48:29.935Z,1.39
2018-11-30T20:49:31.323Z,1.47
2018-11-30T20:50:32.699Z,1.43
2018-11-30T20:51:34.079Z,1.34
2018-11-30T20:52:35.456Z,1.47
2018-11-30T20:53:36.835Z,1.43
2018-11-30T20:54:38.206Z,1.43
2018-11-30T20:55:39.588Z,1.39
2018-11-30T20:56:40.971Z,1.50
2018-11-30T20:57:42.346Z,1.44
2018-11-30T20:58:43.727Z,1.43
2018-11-30T20:59:45.111Z,1.47
2018-11-30T21:00:46.482Z,1.52
2018-11-30T21:01:47.857Z,1.44
2018-11-30T21:02:49.248Z,1.29
2018-11-30T21:03:50.611Z,1.46
2018-11-30T21:04:52.006Z,1.47
2018-11-30T21:05:53.422Z,1.42
2018-11-30T21:06:55.341Z,1.43
2018-11-30T21:07:56.142Z,1.43
2018-11-30T21:08:57.530Z,1.39
2018-11-30T21:09:58.918Z,1.42
2018-11-30T21:11:00.303Z,1.38
2018-11-30T21:12:01.687Z,1.46
2018-11-30T21:13:03.068Z,1.49
2018-11-30T21:14:04.450Z,1.43
2018-11-30T21:15:05.847Z,1.38
2018-11-30T21:16:07.228Z,1.44
2018-11-30T21:17:08.600Z,1.38
2018-11-30T21:18:09.980Z,1.44
2018-11-30T21:19:11.358Z,1.39
2018-11-30T21:20:12.737Z,1.39
2018-11-30T21:21:14.109Z,1.35
2018-11-30T21:22:15.487Z,1.35
2018-11-30T21:23:16.875Z,1.44
2018-11-30T21:24:18.248Z,1.36
2018-11-30T21:25:19.629Z,1.36
2018-11-30T21:26:21.010Z,1.31
2018-11-30T21:27:22.391Z,1.31
2018-11-30T21:28:23.771Z,1.34
2018-11-30T21:29:25.151Z,1.36
2018-11-30T21:30:26.524Z,1.34
2018-11-30T21:31:27.901Z,1.29
2018-11-30T21:32:31.303Z,1.26
2018-11-30T21:33:30.630Z,1.26
2018-11-30T21:34:32.012Z,1.32
2018-11-30T21:35:33.386Z,1.31
2018-11-30T21:36:34.770Z,1.25
2018-11-30T21:37:36.155Z,1.25
2018-11-30T21:38:37.517Z,1.29
2018-11-30T21:39:38.906Z,1.26
2018-11-30T21:40:40.281Z,1.31
2018-11-30T21:41:41.663Z,1.24
2018-11-30T21:42:43.073Z,1.35
2018-11-30T21:43:44.440Z,1.36
2018-11-30T21:44:45.826Z,1.35
2018-11-30T21:45:47.212Z,1.35
2018-11-30T21:46:48.585Z,1.39
2018-11-30T21:47:49.966Z,1.35
2018-11-30T21:48:51.337Z,1.35
2018-11-30T21:49:52.715Z,1.39
2018-11-30T21:50:54.094Z,1.39
2018-11-30T21:51:55.469Z,1.31
2018-11-30T21:52:56.863Z,1.35
2018-11-30T21:53:58.240Z,1.34
2018-11-30T21:54:59.617Z,1.34
2018-11-30T21:56:01.008Z,1.32
2018-11-30T21:57:02.376Z,1.36
2018-11-30T21:58:03.762Z,1.35
2018-11-30T21:59:05.135Z,1.35
2018-11-30T22:00:06.513Z,1.39
2018-11-30T22:01:07.900Z,1.36
2018-11-30T22:02:09.338Z,1.35
2018-11-30T22:03:10.666Z,1.32
2018-11-30T22:04:12.053Z,1.34
2018-11-30T22:05:13.437Z,1.35
2018-11-30T22:06:14.854Z,1.34
2018-11-30T22:07:16.217Z,1.39
2018-11-30T22:08:17.663Z,1.34
2018-11-30T22:09:19.120Z,1.26
2018-11-30T22:10:20.505Z,1.21
2018-11-30T22:11:21.879Z,1.32
2018-11-30T22:12:23.282Z,1.34
2018-11-30T22:13:24.668Z,1.29
2018-11-30T22:14:26.052Z,1.32
2018-11-30T22:15:27.433Z,1.36
2018-11-30T22:16:28.807Z,1.39
2018-11-30T22:17:30.185Z,1.46
2018-11-30T22:18:31.562Z,1.31
2018-11-30T22:19:32.943Z,1.42
2018-11-30T22:20:34.323Z,1.38
2018-11-30T22:21:35.704Z,1.35
2018-11-30T22:22:37.095Z,1.39
2018-11-30T22:23:38.479Z,1.32
2018-11-30T22:24:39.858Z,1.42
2018-11-30T22:25:41.234Z,1.43
2018-11-30T22:26:42.619Z,1.34
2018-11-30T22:27:43.997Z,1.38
2018-11-30T22:28:45.385Z,1.32
2018-11-30T22:29:46.757Z,1.29
2018-11-30T22:30:48.139Z,1.32
2018-11-30T22:31:49.518Z,1.31
2018-11-30T22:32:50.894Z,1.35
2018-11-30T22:33:52.267Z,1.20
2018-11-30T22:34:53.639Z,1.31
2018-11-30T22:35:55.016Z,1.32
2018-11-30T22:36:56.394Z,1.26
2018-11-30T22:37:57.768Z,1.34
2018-11-30T22:38:59.144Z,1.31
2018-11-30T22:40:00.520Z,1.32
2018-11-30T22:41:01.897Z,1.29
2018-11-30T22:42:03.282Z,1.34
2018-11-30T22:43:04.660Z,1.31
2018-11-30T22:44:06.044Z,1.29
2018-11-30T22:45:07.425Z,1.29
2018-11-30T22:46:08.804Z,1.21
2018-11-30T22:47:10.180Z,1.35
2018-11-30T22:48:11.594Z,1.35
2018-11-30T22:49:12.953Z,1.39
2018-11-30T22:50:14.337Z,1.32
2018-11-30T22:51:15.712Z,1.32
2018-11-30T22:54:19.787Z,1.34
2018-11-30T22:56:20.286Z,1.35
2018-11-30T22:56:23.440Z,1.26
2018-11-30T22:57:23.839Z,1.34
2018-11-30T22:58:25.582Z,1.34
2018-11-30T22:58:59.446Z,1.32
2018-11-30T22:59:29.346Z,1.38
2018-11-30T23:00:19.207Z,1.35
2018-11-30T23:00:30.456Z,1.32
2018-11-30T23:01:30.077Z,1.34
2018-11-30T23:02:31.445Z,1.36
2018-11-30T23:03:32.848Z,1.35
2018-11-30T23:04:34.217Z,1.35
2018-11-30T23:05:35.591Z,1.32
2018-11-30T23:06:36.976Z,1.35
2018-11-30T23:07:38.352Z,1.31
2018-11-30T23:08:39.732Z,1.34
2018-11-30T23:09:41.108Z,1.34
2018-11-30T23:10:42.486Z,1.36
2018-11-30T23:11:43.861Z,1.34
2018-11-30T23:12:45.241Z,1.38
2018-11-30T23:13:46.620Z,1.38
2018-11-30T23:14:47.998Z,1.28
2018-11-30T23:15:49.363Z,1.26
2018-11-30T23:16:50.741Z,1.35
2018-11-30T23:17:52.112Z,1.38
2018-11-30T23:18:53.497Z,1.31
2018-11-30T23:19:54.871Z,1.39
2018-11-30T23:20:56.241Z,1.29
2018-11-30T23:21:57.619Z,1.36
2018-11-30T23:22:58.997Z,1.36
2018-11-30T23:24:00.373Z,1.31
2018-11-30T23:25:01.772Z,1.28
2018-11-30T23:26:03.179Z,1.32
2018-11-30T23:27:04.571Z,1.26
2018-11-30T23:28:05.949Z,1.26
2018-11-30T23:29:07.328Z,1.25
2018-11-30T23:30:08.715Z,1.29
2018-11-30T23:31:10.104Z,1.21
2018-11-30T23:32:11.480Z,1.28
2018-11-30T23:33:12.859Z,1.21
2018-11-30T23:34:14.235Z,1.36
2018-11-30T23:35:15.612Z,1.20
2018-11-30T23:36:16.986Z,1.35
2018-11-30T23:37:18.362Z,1.28
2018-11-30T23:38:19.750Z,1.28
2018-11-30T23:39:21.130Z,1.29
2018-11-30T23:40:22.504Z,1.25
2018-11-30T23:41:23.888Z,1.28
2018-11-30T23:42:25.261Z,1.20
2018-11-30T23:43:26.638Z,1.29
2018-11-30T23:44:28.021Z,1.29
2018-11-30T23:45:29.394Z,1.20
2018-11-30T23:46:30.773Z,1.26
2018-11-30T23:47:32.161Z,1.24
2018-11-30T23:48:33.543Z,1.35
2018-11-30T23:49:34.917Z,1.29
2018-11-30T23:50:36.293Z,1.32
2018-11-30T23:51:37.667Z,1.32
2018-11-30T23:52:39.044Z,1.35
2018-11-30T23:53:40.427Z,1.26
2018-11-30T23:54:41.809Z,1.34
2018-11-30T23:55:43.190Z,1.36
2018-11-30T23:56:44.575Z,1.36
2018-11-30T23:57:45.953Z,1.39
2018-11-30T23:58:47.331Z,1.34
2018-11-30T23:59:48.714Z,1.34
